地図

経路データ

SID SEASON NUMBER BASIN SUBBASIN NAME ISO_TIME NATURE LAT LON WMO_WIND WMO_PRES WMO_AGENCY TRACK_TYPE DIST2LAND LANDFALL IFLAG USA_AGENCY USA_ATCF_ID USA_LAT USA_LON USA_RECORD USA_STATUS USA_WIND USA_PRES USA_SSHS USA_R34_NE USA_R34_SE USA_R34_SW USA_R34_NW USA_R50_NE USA_R50_SE USA_R50_SW USA_R50_NW USA_R64_NE USA_R64_SE USA_R64_SW USA_R64_NW USA_POCI USA_ROCI USA_RMW USA_EYE TOKYO_LAT TOKYO_LON TOKYO_GRADE TOKYO_WIND TOKYO_PRES TOKYO_R50_DIR TOKYO_R50_LONG TOKYO_R50_SHORT TOKYO_R30_DIR TOKYO_R30_LONG TOKYO_R30_SHORT TOKYO_LAND CMA_LAT CMA_LON CMA_CAT CMA_WIND CMA_PRES HKO_LAT HKO_LON HKO_CAT HKO_WIND HKO_PRES NEWDELHI_LAT NEWDELHI_LON NEWDELHI_GRADE NEWDELHI_WIND NEWDELHI_PRES NEWDELHI_CI NEWDELHI_DP NEWDELHI_POCI REUNION_LAT REUNION_LON REUNION_TYPE REUNION_WIND REUNION_PRES REUNION_TNUM REUNION_CI REUNION_RMW REUNION_R34_NE REUNION_R34_SE REUNION_R34_SW REUNION_R34_NW REUNION_R50_NE REUNION_R50_SE REUNION_R50_SW REUNION_R50_NW REUNION_R64_NE REUNION_R64_SE REUNION_R64_SW REUNION_R64_NW BOM_LAT BOM_LON BOM_TYPE BOM_WIND BOM_PRES BOM_TNUM BOM_CI BOM_RMW BOM_R34_NE BOM_R34_SE BOM_R34_SW BOM_R34_NW BOM_R50_NE BOM_R50_SE BOM_R50_SW BOM_R50_NW BOM_R64_NE BOM_R64_SE BOM_R64_SW BOM_R64_NW BOM_ROCI BOM_POCI BOM_EYE BOM_POS_METHOD BOM_PRES_METHOD NADI_LAT NADI_LON NADI_CAT NADI_WIND NADI_PRES WELLINGTON_LAT WELLINGTON_LON WELLINGTON_WIND WELLINGTON_PRES DS824_LAT DS824_LON DS824_STAGE DS824_WIND DS824_PRES TD9636_LAT TD9636_LON TD9636_STAGE TD9636_WIND TD9636_PRES TD9635_LAT TD9635_LON TD9635_WIND TD9635_PRES TD9635_ROCI NEUMANN_LAT NEUMANN_LON NEUMANN_CLASS NEUMANN_WIND NEUMANN_PRES MLC_LAT MLC_LON MLC_CLASS MLC_WIND MLC_PRES USA_GUST BOM_GUST BOM_GUST_PER REUNION_GUST REUNION_GUST_PER USA_SEAHGT USA_SEARAD_NE USA_SEARAD_SE USA_SEARAD_SW USA_SEARAD_NW STORM_SPEED STORM_DIR
1980200N13249 1980 50 EP MM FRANK 1980-07-18 06:00:00 TS 13.1000 -111.000 30 hurdat_epa main 950 950 O________OO___ hurdat_epa EP061980 13.1000 -111.000 TD 30 -1 13.1000 -111.000 TC 30 13.1000 -111.000 1 30 6 307
1980200N13249 1980 50 EP MM FRANK 1980-07-18 09:00:00 TS 13.2915 -111.260 main 957 949 P________PP___ EP061980 13.2926 -111.260 TD 30 -1 13.2926 -111.260 TC 30 13.2873 -111.259 1 30 6 309
1980200N13249 1980 50 EP MM FRANK 1980-07-18 12:00:00 TS 13.5000 -111.500 30 hurdat_epa main 957 949 O________OO___ hurdat_epa EP061980 13.5000 -111.500 TD 30 -1 13.5000 -111.500 TC 30 13.5000 -111.500 1 30 6 316
1980200N13249 1980 50 EP MM FRANK 1980-07-18 15:00:00 TS 13.7391 -111.708 main 956 948 P________PP___ EP061980 13.7350 -111.708 TD 30 -1 13.7350 -111.708 TC 30 13.7557 -111.709 1 30 6 323
1980200N13249 1980 50 EP MM FRANK 1980-07-18 18:00:00 TS 14.0079 -111.900 30 hurdat_epa main 948 941 O________OP___ hurdat_epa EP061980 14.0000 -111.900 TD 30 -1 14.0000 -111.900 TC 30 14.0395 -111.900 1 30 7 327
1980200N13249 1980 50 EP MM FRANK 1980-07-18 21:00:00 TS 14.3117 -112.092 main 942 934 P________PP___ EP061980 14.3075 -112.093 TD 30 -1 14.3075 -112.093 TC 30 14.3287 -112.091 1 30 7 327
1980200N13249 1980 50 EP MM FRANK 1980-07-19 00:00:00 TS 14.6000 -112.300 30 hurdat_epa main 937 937 O________OO___ hurdat_epa EP061980 14.6000 -112.300 TD 30 -1 14.6000 -112.300 TC 30 14.6000 -112.300 1 30 7 319
1980200N13249 1980 50 EP MM FRANK 1980-07-19 03:00:00 TS 14.8155 -112.540 main 940 928 P________PP___ EP061980 14.8150 -112.535 TD 30 -1 14.8150 -112.535 TC 30 14.8176 -112.562 1 30 6 309
1980200N13249 1980 50 EP MM FRANK 1980-07-19 06:00:00 TS 15.0030 -112.809 30 hurdat_epa main 931 917 O________OP___ hurdat_epa EP061980 15.0000 -112.800 TD 30 -1 15.0000 -112.800 TC 30 15.0151 -112.843 1 30 7 305
1980200N13249 1980 50 EP MM FRANK 1980-07-19 09:00:00 TS 15.2010 -113.111 main 920 907 P________PP___ EP061980 15.2000 -113.107 TD 30 -1 15.2000 -113.107 TC 30 15.2051 -113.127 1 30 7 305
1980200N13249 1980 50 EP MM FRANK 1980-07-19 12:00:00 TS 15.4000 -113.400 30 hurdat_epa main 911 899 O________OO___ hurdat_epa EP061980 15.4000 -113.400 TD 30 -1 15.4000 -113.400 TC 30 15.4000 -113.400 1 30 6 309
1980200N13249 1980 50 EP MM FRANK 1980-07-19 15:00:00 TS 15.5999 -113.614 main 899 888 P________PP___ EP061980 15.5924 -113.608 TD 27 -1 15.5924 -113.608 TC 27 15.6298 -113.639 1 30 6 316
1980200N13249 1980 50 EP MM FRANK 1980-07-19 18:00:00 TS 15.8130 -113.813 25 hurdat_epa main 888 868 O________OP___ hurdat_epa EP061980 15.8000 -113.800 TD 25 -1 15.8000 -113.800 TC 25 15.8648 -113.865 1 30 6 317
1980200N13249 1980 50 EP MM FRANK 1980-07-19 21:00:00 TS 16.0645 -114.057 main 873 859 P________PP___ EP061980 16.0575 -114.050 TD 27 -1 16.0575 -114.050 TC 27 16.0924 -114.083 1 30 7 316
1980200N13249 1980 50 EP MM FRANK 1980-07-20 00:00:00 TS 16.3000 -114.300 30 hurdat_epa main 864 856 O________OO___ hurdat_epa EP061980 16.3000 -114.300 TD 30 -1 16.3000 -114.300 TC 30 16.3000 -114.300 1 30 6 313
1980200N13249 1980 50 EP MM FRANK 1980-07-20 03:00:00 TS 16.4638 -114.506 main 856 853 P________PP___ EP061980 16.4649 -114.500 TD 30 -1 16.4649 -114.500 TC 30 16.4593 -114.529 1 32 5 307
1980200N13249 1980 50 EP MM FRANK 1980-07-20 06:00:00 TS 16.6000 -114.712 30 hurdat_epa main 859 855 O________OP___ hurdat_epa EP061980 16.6000 -114.700 TD 30 -1 16.6000 -114.700 TC 30 16.5999 -114.758 1 35 5 303
1980200N13249 1980 50 EP MM FRANK 1980-07-20 09:00:00 TS 16.7421 -114.951 main 868 856 P________PP___ EP061980 16.7425 -114.943 TD 35 0 16.7425 -114.943 TC 35 16.7406 -114.982 1 37 6 303
1980200N13249 1980 50 EP MM FRANK 1980-07-20 12:00:00 TS 16.9000 -115.200 40 hurdat_epa main 863 859 O________OO___ hurdat_epa EP061980 16.9000 -115.200 TS 40 0 16.9000 -115.200 TC 40 16.9000 -115.200 2 40 6 306
1980200N13249 1980 50 EP MM FRANK 1980-07-20 15:00:00 TS 17.0911 -115.451 main 866 856 P________PP___ EP061980 17.0850 -115.465 TS 42 0 17.0850 -115.465 TC 42 17.1154 -115.395 2 38 6 312
1980200N13249 1980 50 EP MM FRANK 1980-07-20 18:00:00 TS 17.3099 -115.677 45 hurdat_epa main 863 854 O________OP___ hurdat_epa EP061980 17.3000 -115.700 TS 45 0 17.3000 -115.700 TC 45 17.3497 -115.585 2 37 6 321
1980200N13249 1980 50 EP MM FRANK 1980-07-20 21:00:00 TS 17.5568 -115.843 main 846 846 P________PP___ EP061980 17.5499 -115.858 TS 40 0 17.5499 -115.858 TC 40 17.5842 -115.783 2 36 6 328
1980200N13249 1980 50 EP MM FRANK 1980-07-21 00:00:00 TS 17.8000 -116.000 35 hurdat_epa main 846 838 O________OO___ hurdat_epa EP061980 17.8000 -116.000 TS 35 0 17.8000 -116.000 TC 35 17.8000 -116.000 2 35 6 325
1980200N13249 1980 50 EP MM FRANK 1980-07-21 03:00:00 TS 18.0171 -116.186 main 846 839 P________PP___ EP061980 18.0224 -116.170 TS 35 0 18.0224 -116.170 TC 35 17.9959 -116.249 2 35 6 314
1980200N13249 1980 50 EP MM FRANK 1980-07-21 06:00:00 TS 18.1935 -116.424 35 hurdat_epa main 848 846 O________OP___ hurdat_epa EP061980 18.2000 -116.400 TS 35 0 18.2000 -116.400 TC 35 18.1674 -116.520 2 35 6 300
1980200N13249 1980 50 EP MM FRANK 1980-07-21 09:00:00 TS 18.3251 -116.755 main 864 861 P________PP___ EP061980 18.3301 -116.742 TS 35 0 18.3301 -116.742 TC 35 18.3052 -116.805 2 35 7 288
1980200N13249 1980 50 EP MM FRANK 1980-07-21 12:00:00 TS 18.4000 -117.100 35 hurdat_epa main 873 873 O________OO___ hurdat_epa EP061980 18.4000 -117.100 TS 35 0 18.4000 -117.100 TC 35 18.4000 -117.100 2 35 6 279
1980200N13249 1980 50 EP MM FRANK 1980-07-21 15:00:00 TS 18.4197 -117.359 main 892 892 P________PP___ EP061980 18.4148 -117.350 TS 32 -1 18.4148 -117.350 TC 32 18.4390 -117.393 2 33 5 271
1980200N13249 1980 50 EP MM FRANK 1980-07-21 18:00:00 TS 18.4075 -117.619 30 hurdat_epa main 905 905 O________OP___ hurdat_epa EP061980 18.4000 -117.600 TD 30 -1 18.4000 -117.600 TC 30 18.4374 -117.693 2 32 6 268
1980200N13249 1980 50 EP MM FRANK 1980-07-21 21:00:00 TS 18.3975 -117.959 main 931 931 P________PP___ EP061980 18.3926 -117.950 TD 30 -1 18.3926 -117.950 TC 30 18.4171 -117.996 2 31 6 269
1980200N13249 1980 50 EP MM FRANK 1980-07-22 00:00:00 TS 18.4000 -118.300 30 hurdat_epa main 952 952 O________OO___ hurdat_epa EP061980 18.4000 -118.300 TD 30 -1 18.4000 -118.300 TC 30 18.4000 -118.300 1 30 6 274
1980200N13249 1980 50 EP MM FRANK 1980-07-22 03:00:00 TS 18.4405 -118.560 main 973 964 P________PP___ EP061980 18.4498 -118.550 TD 27 -1 18.4498 -118.550 TC 27 18.4033 -118.602 1 27 5 280
1980200N13249 1980 50 EP MM FRANK 1980-07-22 06:00:00 TS 18.4851 -118.820 25 hurdat_epa main 979 979 O________OP___ hurdat_epa EP061980 18.5000 -118.800 TD 25 -1 18.5000 -118.800 TC 25 18.4253 -118.902 1 25 6 276
1980200N13249 1980 50 EP MM FRANK 1980-07-22 09:00:00 TS 18.5021 -119.140 main 1001 1001 P________PP___ EP061980 18.5127 -119.125 TD 22 -1 18.5127 -119.125 TC 22 18.4597 -119.201 1 22 6 271
1980200N13249 1980 50 EP MM FRANK 1980-07-22 12:00:00 TS 18.5000 -119.500 20 hurdat_epa main 1031 O________OO___ hurdat_epa EP061980 18.5000 -119.500 TD 20 -1 18.5000 -119.500 TC 20 18.5000 -119.500 1 20 7 270

IBTrACS Databaseについて

本データベースは、米国NOAAが公開する1842年以降の世界の熱帯低気圧のベストトラックデータアーカイブInternational Best Track Archive for Climate Stewardship (IBTrACS)を、ウェブで閲覧しやすい形式に変換したものです。

最終更新日:2021-11-26